sensor_id;sensor_type;location;lat;lon;timestamp;temperature;humidity
42099;DHT22;27758;55.900;8.516;2023-07-31T00:01:12;14.20;99.90
42099;DHT22;27758;55.900;8.516;2023-07-31T00:03:37;14.20;99.90
42099;DHT22;27758;55.900;8.516;2023-07-31T00:06:03;14.30;99.90
42099;DHT22;27758;55.900;8.516;2023-07-31T00:08:29;14.30;99.90
42099;DHT22;27758;55.900;8.516;2023-07-31T00:10:54;14.30;99.90
42099;DHT22;27758;55.900;8.516;2023-07-31T00:13:21;14.30;99.90
42099;DHT22;27758;55.900;8.516;2023-07-31T00:15:47;14.30;99.90
42099;DHT22;27758;55.900;8.516;2023-07-31T00:18:13;14.30;99.90
42099;DHT22;27758;55.900;8.516;2023-07-31T00:20:38;14.30;99.90
42099;DHT22;27758;55.900;8.516;2023-07-31T00:23:04;14.40;99.90
42099;DHT22;27758;55.900;8.516;2023-07-31T00:25:30;14.40;99.90
42099;DHT22;27758;55.900;8.516;2023-07-31T00:27:55;14.40;99.90
42099;DHT22;27758;55.900;8.516;2023-07-31T00:30:21;14.50;99.90
42099;DHT22;27758;55.900;8.516;2023-07-31T00:32:47;14.40;99.90
42099;DHT22;27758;55.900;8.516;2023-07-31T00:35:13;14.50;99.90
42099;DHT22;27758;55.900;8.516;2023-07-31T00:37:39;14.50;99.90
42099;DHT22;27758;55.900;8.516;2023-07-31T00:40:05;14.50;99.90
42099;DHT22;27758;55.900;8.516;2023-07-31T00:42:31;14.50;99.90
42099;DHT22;27758;55.900;8.516;2023-07-31T00:44:57;14.50;99.90
42099;DHT22;27758;55.900;8.516;2023-07-31T00:47:22;14.50;99.90
42099;DHT22;27758;55.900;8.516;2023-07-31T00:49:48;14.60;99.90
42099;DHT22;27758;55.900;8.516;2023-07-31T00:52:14;14.60;99.90
42099;DHT22;27758;55.900;8.516;2023-07-31T00:54:40;14.60;99.90
42099;DHT22;27758;55.900;8.516;2023-07-31T00:57:05;14.50;99.90
42099;DHT22;27758;55.900;8.516;2023-07-31T00:59:33;14.50;99.90
42099;DHT22;27758;55.900;8.516;2023-07-31T01:01:59;14.60;99.90
42099;DHT22;27758;55.900;8.516;2023-07-31T01:04:25;14.50;99.90
42099;DHT22;27758;55.900;8.516;2023-07-31T01:07:05;14.50;99.90
42099;DHT22;27758;55.900;8.516;2023-07-31T01:12:27;14.40;99.90
42099;DHT22;27758;55.900;8.516;2023-07-31T01:17:26;14.40;99.90
42099;DHT22;27758;55.900;8.516;2023-07-31T01:19:54;14.30;99.90
42099;DHT22;27758;55.900;8.516;2023-07-31T01:22:45;14.30;99.90
42099;DHT22;27758;55.900;8.516;2023-07-31T01:28:11;14.30;99.90
42099;DHT22;27758;55.900;8.516;2023-07-31T01:30:42;14.30;99.90
42099;DHT22;27758;55.900;8.516;2023-07-31T01:33:09;14.40;99.90
42099;DHT22;27758;55.900;8.516;2023-07-31T01:35:36;14.40;99.90
42099;DHT22;27758;55.900;8.516;2023-07-31T01:38:02;14.40;99.90
42099;DHT22;27758;55.900;8.516;2023-07-31T01:40:27;14.40;99.90
42099;DHT22;27758;55.900;8.516;2023-07-31T01:42:53;14.40;99.90
42099;DHT22;27758;55.900;8.516;2023-07-31T01:45:19;14.50;99.90
42099;DHT22;27758;55.900;8.516;2023-07-31T01:47:45;14.50;99.90
42099;DHT22;27758;55.900;8.516;2023-07-31T01:50:11;14.40;99.90
42099;DHT22;27758;55.900;8.516;2023-07-31T01:52:36;14.50;99.90
42099;DHT22;27758;55.900;8.516;2023-07-31T01:55:02;14.40;99.90
42099;DHT22;27758;55.900;8.516;2023-07-31T01:57:28;14.40;99.90
42099;DHT22;27758;55.900;8.516;2023-07-31T01:59:54;14.40;99.90
42099;DHT22;27758;55.900;8.516;2023-07-31T02:02:20;14.50;99.90
42099;DHT22;27758;55.900;8.516;2023-07-31T02:04:46;14.50;99.90
42099;DHT22;27758;55.900;8.516;2023-07-31T02:07:12;14.50;99.90
42099;DHT22;27758;55.900;8.516;2023-07-31T02:09:38;14.50;99.90
42099;DHT22;27758;55.900;8.516;2023-07-31T02:12:04;14.40;99.90
42099;DHT22;27758;55.900;8.516;2023-07-31T02:14:29;14.50;99.90
42099;DHT22;27758;55.900;8.516;2023-07-31T02:16:56;14.40;99.90
42099;DHT22;27758;55.900;8.516;2023-07-31T02:19:22;14.40;99.90
42099;DHT22;27758;55.900;8.516;2023-07-31T02:21:48;14.40;99.90
42099;DHT22;27758;55.900;8.516;2023-07-31T02:24:14;14.40;99.90
42099;DHT22;27758;55.900;8.516;2023-07-31T02:26:39;14.40;99.90
42099;DHT22;27758;55.900;8.516;2023-07-31T02:29:06;14.40;99.90
42099;DHT22;27758;55.900;8.516;2023-07-31T02:31:32;14.40;99.90
42099;DHT22;27758;55.900;8.516;2023-07-31T02:33:58;14.50;99.90
42099;DHT22;27758;55.900;8.516;2023-07-31T02:36:23;14.40;99.90
42099;DHT22;27758;55.900;8.516;2023-07-31T02:38:49;14.40;99.90
42099;DHT22;27758;55.900;8.516;2023-07-31T02:41:15;14.40;99.90
42099;DHT22;27758;55.900;8.516;2023-07-31T02:43:40;14.50;99.90
42099;DHT22;27758;55.900;8.516;2023-07-31T02:46:06;14.50;99.90
42099;DHT22;27758;55.900;8.516;2023-07-31T02:48:32;14.50;99.90
42099;DHT22;27758;55.900;8.516;2023-07-31T02:50:58;14.50;99.90
42099;DHT22;27758;55.900;8.516;2023-07-31T02:53:23;14.50;99.90
42099;DHT22;27758;55.900;8.516;2023-07-31T02:55:49;14.50;99.90
42099;DHT22;27758;55.900;8.516;2023-07-31T02:58:14;14.50;99.90
42099;DHT22;27758;55.900;8.516;2023-07-31T03:00:44;14.50;99.90
42099;DHT22;27758;55.900;8.516;2023-07-31T03:03:09;14.60;99.90
42099;DHT22;27758;55.900;8.516;2023-07-31T03:05:35;14.50;99.90
42099;DHT22;27758;55.900;8.516;2023-07-31T03:08:01;14.50;99.90
42099;DHT22;27758;55.900;8.516;2023-07-31T03:10:27;14.40;99.90
42099;DHT22;27758;55.900;8.516;2023-07-31T03:12:55;14.40;99.90
42099;DHT22;27758;55.900;8.516;2023-07-31T03:15:20;14.40;99.90
42099;DHT22;27758;55.900;8.516;2023-07-31T03:17:46;14.50;99.90
42099;DHT22;27758;55.900;8.516;2023-07-31T03:20:12;14.50;99.90
42099;DHT22;27758;55.900;8.516;2023-07-31T03:22:37;14.50;99.90
42099;DHT22;27758;55.900;8.516;2023-07-31T03:25:04;14.50;99.90
42099;DHT22;27758;55.900;8.516;2023-07-31T03:27:29;14.60;99.90
42099;DHT22;27758;55.900;8.516;2023-07-31T03:29:55;14.60;99.90
42099;DHT22;27758;55.900;8.516;2023-07-31T03:32:21;14.70;99.90
42099;DHT22;27758;55.900;8.516;2023-07-31T03:34:46;14.70;99.90
42099;DHT22;27758;55.900;8.516;2023-07-31T03:37:12;14.60;99.90
42099;DHT22;27758;55.900;8.516;2023-07-31T03:39:38;14.70;99.90
42099;DHT22;27758;55.900;8.516;2023-07-31T03:42:04;14.70;99.90
42099;DHT22;27758;55.900;8.516;2023-07-31T03:44:30;14.70;99.90
42099;DHT22;27758;55.900;8.516;2023-07-31T03:46:55;14.70;99.90
42099;DHT22;27758;55.900;8.516;2023-07-31T03:49:21;14.80;99.90
42099;DHT22;27758;55.900;8.516;2023-07-31T03:51:47;14.70;99.90
42099;DHT22;27758;55.900;8.516;2023-07-31T03:54:12;14.70;99.90
42099;DHT22;27758;55.900;8.516;2023-07-31T03:56:39;14.60;99.90
42099;DHT22;27758;55.900;8.516;2023-07-31T03:59:05;14.60;99.90
42099;DHT22;27758;55.900;8.516;2023-07-31T04:01:30;14.70;99.90
42099;DHT22;27758;55.900;8.516;2023-07-31T04:03:56;14.70;99.90
42099;DHT22;27758;55.900;8.516;2023-07-31T04:06:22;14.70;99.90
42099;DHT22;27758;55.900;8.516;2023-07-31T04:08:47;14.70;99.90
42099;DHT22;27758;55.900;8.516;2023-07-31T04:11:13;14.70;99.90
42099;DHT22;27758;55.900;8.516;2023-07-31T04:13:39;14.70;99.90
42099;DHT22;27758;55.900;8.516;2023-07-31T04:16:05;14.70;99.90
42099;DHT22;27758;55.900;8.516;2023-07-31T04:18:31;14.70;99.90
42099;DHT22;27758;55.900;8.516;2023-07-31T04:20:58;14.70;99.90
42099;DHT22;27758;55.900;8.516;2023-07-31T04:23:24;14.70;99.90
42099;DHT22;27758;55.900;8.516;2023-07-31T04:25:50;14.60;99.90
42099;DHT22;27758;55.900;8.516;2023-07-31T04:28:16;14.70;99.90
42099;DHT22;27758;55.900;8.516;2023-07-31T04:30:42;14.70;99.90
42099;DHT22;27758;55.900;8.516;2023-07-31T04:33:08;14.70;99.90
42099;DHT22;27758;55.900;8.516;2023-07-31T04:35:33;14.70;99.90
42099;DHT22;27758;55.900;8.516;2023-07-31T04:37:59;14.70;99.90
42099;DHT22;27758;55.900;8.516;2023-07-31T04:40:25;14.70;99.90
42099;DHT22;27758;55.900;8.516;2023-07-31T04:42:51;14.70;99.90
42099;DHT22;27758;55.900;8.516;2023-07-31T04:45:16;14.80;99.90
42099;DHT22;27758;55.900;8.516;2023-07-31T04:47:42;14.90;99.90
42099;DHT22;27758;55.900;8.516;2023-07-31T04:50:08;15.00;99.90
42099;DHT22;27758;55.900;8.516;2023-07-31T04:52:34;15.00;99.90
42099;DHT22;27758;55.900;8.516;2023-07-31T04:55:00;15.20;99.90
42099;DHT22;27758;55.900;8.516;2023-07-31T04:57:26;15.20;99.90
42099;DHT22;27758;55.900;8.516;2023-07-31T04:59:51;15.30;99.90
42099;DHT22;27758;55.900;8.516;2023-07-31T05:02:17;15.40;99.90
42099;DHT22;27758;55.900;8.516;2023-07-31T05:04:43;15.50;99.90
42099;DHT22;27758;55.900;8.516;2023-07-31T05:07:08;15.50;99.90
42099;DHT22;27758;55.900;8.516;2023-07-31T05:09:34;15.60;99.90
42099;DHT22;27758;55.900;8.516;2023-07-31T05:12:00;15.70;99.90
42099;DHT22;27758;55.900;8.516;2023-07-31T05:14:26;15.80;99.90
42099;DHT22;27758;55.900;8.516;2023-07-31T05:16:52;15.80;99.90
42099;DHT22;27758;55.900;8.516;2023-07-31T05:19:18;15.80;99.90
42099;DHT22;27758;55.900;8.516;2023-07-31T05:21:43;16.00;99.90
42099;DHT22;27758;55.900;8.516;2023-07-31T05:24:10;16.10;99.90
42099;DHT22;27758;55.900;8.516;2023-07-31T05:26:36;16.10;99.90
42099;DHT22;27758;55.900;8.516;2023-07-31T05:29:02;16.30;99.90
42099;DHT22;27758;55.900;8.516;2023-07-31T05:31:29;16.40;99.90
42099;DHT22;27758;55.900;8.516;2023-07-31T05:33:55;16.50;99.90
42099;DHT22;27758;55.900;8.516;2023-07-31T05:36:20;16.50;99.90
42099;DHT22;27758;55.900;8.516;2023-07-31T05:38:46;16.60;99.90
42099;DHT22;27758;55.900;8.516;2023-07-31T05:41:12;16.80;99.90
42099;DHT22;27758;55.900;8.516;2023-07-31T05:43:38;16.90;99.90
42099;DHT22;27758;55.900;8.516;2023-07-31T05:46:04;16.90;99.90
42099;DHT22;27758;55.900;8.516;2023-07-31T05:48:30;17.00;99.90
42099;DHT22;27758;55.900;8.516;2023-07-31T05:50:55;16.90;99.90
42099;DHT22;27758;55.900;8.516;2023-07-31T05:53:21;17.10;99.90
42099;DHT22;27758;55.900;8.516;2023-07-31T05:55:47;17.10;99.90
42099;DHT22;27758;55.900;8.516;2023-07-31T05:58:12;17.00;99.90
42099;DHT22;27758;55.900;8.516;2023-07-31T06:00:38;17.20;99.90
42099;DHT22;27758;55.900;8.516;2023-07-31T06:03:04;17.30;99.90
42099;DHT22;27758;55.900;8.516;2023-07-31T06:05:29;17.30;99.90
42099;DHT22;27758;55.900;8.516;2023-07-31T06:07:56;17.60;99.90
42099;DHT22;27758;55.900;8.516;2023-07-31T06:10:22;17.70;99.90
42099;DHT22;27758;55.900;8.516;2023-07-31T06:12:47;17.90;99.90
42099;DHT22;27758;55.900;8.516;2023-07-31T06:15:13;18.00;99.90
42099;DHT22;27758;55.900;8.516;2023-07-31T06:17:39;18.10;99.90
42099;DHT22;27758;55.900;8.516;2023-07-31T06:20:06;17.90;99.90
42099;DHT22;27758;55.900;8.516;2023-07-31T06:22:32;17.70;99.90
42099;DHT22;27758;55.900;8.516;2023-07-31T06:24:58;17.70;99.90
42099;DHT22;27758;55.900;8.516;2023-07-31T06:27:24;17.70;99.90
42099;DHT22;27758;55.900;8.516;2023-07-31T06:29:49;17.50;99.90
42099;DHT22;27758;55.900;8.516;2023-07-31T06:32:15;17.60;99.90
42099;DHT22;27758;55.900;8.516;2023-07-31T06:34:41;17.60;99.90
42099;DHT22;27758;55.900;8.516;2023-07-31T06:37:07;17.60;99.90
42099;DHT22;27758;55.900;8.516;2023-07-31T06:39:32;17.40;99.90
42099;DHT22;27758;55.900;8.516;2023-07-31T06:41:58;17.30;99.90
42099;DHT22;27758;55.900;8.516;2023-07-31T06:44:23;17.20;99.90
42099;DHT22;27758;55.900;8.516;2023-07-31T06:46:49;17.30;99.90
42099;DHT22;27758;55.900;8.516;2023-07-31T06:49:15;17.40;99.90
42099;DHT22;27758;55.900;8.516;2023-07-31T06:51:41;17.70;99.90
42099;DHT22;27758;55.900;8.516;2023-07-31T06:54:08;18.10;99.90
42099;DHT22;27758;55.900;8.516;2023-07-31T06:56:33;18.40;99.90
42099;DHT22;27758;55.900;8.516;2023-07-31T06:58:59;18.70;99.90
42099;DHT22;27758;55.900;8.516;2023-07-31T07:01:25;19.00;99.90
42099;DHT22;27758;55.900;8.516;2023-07-31T07:03:51;18.90;99.90
42099;DHT22;27758;55.900;8.516;2023-07-31T07:06:19;19.00;99.90
42099;DHT22;27758;55.900;8.516;2023-07-31T07:08:45;18.80;99.90
42099;DHT22;27758;55.900;8.516;2023-07-31T07:11:10;18.60;99.90
42099;DHT22;27758;55.900;8.516;2023-07-31T07:13:36;18.30;99.90
42099;DHT22;27758;55.900;8.516;2023-07-31T07:16:02;18.10;99.90
42099;DHT22;27758;55.900;8.516;2023-07-31T07:18:27;18.00;99.90
42099;DHT22;27758;55.900;8.516;2023-07-31T07:20:54;18.00;99.90
42099;DHT22;27758;55.900;8.516;2023-07-31T07:23:20;18.00;99.90
42099;DHT22;27758;55.900;8.516;2023-07-31T07:25:47;18.20;99.90
42099;DHT22;27758;55.900;8.516;2023-07-31T07:28:13;18.50;99.90
42099;DHT22;27758;55.900;8.516;2023-07-31T07:30:39;18.90;99.90
42099;DHT22;27758;55.900;8.516;2023-07-31T07:33:05;19.30;99.90
42099;DHT22;27758;55.900;8.516;2023-07-31T07:35:34;19.70;99.90
42099;DHT22;27758;55.900;8.516;2023-07-31T07:38:02;19.90;99.90
42099;DHT22;27758;55.900;8.516;2023-07-31T07:40:28;20.10;99.90
42099;DHT22;27758;55.900;8.516;2023-07-31T07:42:53;20.40;99.90
42099;DHT22;27758;55.900;8.516;2023-07-31T07:45:19;20.30;99.90
42099;DHT22;27758;55.900;8.516;2023-07-31T07:47:45;20.20;99.90
42099;DHT22;27758;55.900;8.516;2023-07-31T07:50:11;20.30;99.90
42099;DHT22;27758;55.900;8.516;2023-07-31T07:52:36;20.10;99.90
42099;DHT22;27758;55.900;8.516;2023-07-31T07:55:02;20.10;99.90
42099;DHT22;27758;55.900;8.516;2023-07-31T07:57:29;20.00;99.90
42099;DHT22;27758;55.900;8.516;2023-07-31T07:59:55;19.90;99.90
42099;DHT22;27758;55.900;8.516;2023-07-31T08:02:21;20.20;99.90
42099;DHT22;27758;55.900;8.516;2023-07-31T08:04:48;20.30;99.90
42099;DHT22;27758;55.900;8.516;2023-07-31T08:07:14;20.50;99.90
42099;DHT22;27758;55.900;8.516;2023-07-31T08:09:40;20.30;99.90
42099;DHT22;27758;55.900;8.516;2023-07-31T08:12:06;19.80;99.90
42099;DHT22;27758;55.900;8.516;2023-07-31T08:14:32;19.80;99.90
42099;DHT22;27758;55.900;8.516;2023-07-31T08:16:58;19.90;99.90
42099;DHT22;27758;55.900;8.516;2023-07-31T08:19:23;19.70;99.90
42099;DHT22;27758;55.900;8.516;2023-07-31T08:21:49;19.70;99.90
42099;DHT22;27758;55.900;8.516;2023-07-31T08:24:15;19.40;99.90
42099;DHT22;27758;55.900;8.516;2023-07-31T08:26:41;19.30;99.90
42099;DHT22;27758;55.900;8.516;2023-07-31T08:29:06;19.70;99.90
42099;DHT22;27758;55.900;8.516;2023-07-31T08:31:32;20.10;99.90
42099;DHT22;27758;55.900;8.516;2023-07-31T08:33:58;20.30;99.90
42099;DHT22;27758;55.900;8.516;2023-07-31T08:36:24;20.10;99.90
42099;DHT22;27758;55.900;8.516;2023-07-31T08:38:52;20.30;99.90
42099;DHT22;27758;55.900;8.516;2023-07-31T08:41:17;20.80;99.90
42099;DHT22;27758;55.900;8.516;2023-07-31T08:43:49;21.00;99.90
42099;DHT22;27758;55.900;8.516;2023-07-31T08:46:15;21.10;99.90
42099;DHT22;27758;55.900;8.516;2023-07-31T08:48:42;21.30;99.90
42099;DHT22;27758;55.900;8.516;2023-07-31T08:51:08;21.20;99.90
42099;DHT22;27758;55.900;8.516;2023-07-31T08:53:34;21.30;99.90
42099;DHT22;27758;55.900;8.516;2023-07-31T08:56:00;21.60;99.90
42099;DHT22;27758;55.900;8.516;2023-07-31T08:58:30;21.80;99.90
42099;DHT22;27758;55.900;8.516;2023-07-31T09:00:57;22.10;99.90
42099;DHT22;27758;55.900;8.516;2023-07-31T09:03:24;21.80;99.90
42099;DHT22;27758;55.900;8.516;2023-07-31T09:05:51;21.80;99.90
42099;DHT22;27758;55.900;8.516;2023-07-31T09:08:21;21.90;99.90
42099;DHT22;27758;55.900;8.516;2023-07-31T09:10:47;21.40;99.90
42099;DHT22;27758;55.900;8.516;2023-07-31T09:13:15;21.20;99.90
42099;DHT22;27758;55.900;8.516;2023-07-31T09:15:45;21.30;99.90
42099;DHT22;27758;55.900;8.516;2023-07-31T09:18:11;21.60;99.90
42099;DHT22;27758;55.900;8.516;2023-07-31T09:20:37;21.60;99.90
42099;DHT22;27758;55.900;8.516;2023-07-31T09:23:12;21.30;99.90
42099;DHT22;27758;55.900;8.516;2023-07-31T09:25:38;20.70;99.90
42099;DHT22;27758;55.900;8.516;2023-07-31T09:28:06;20.30;99.90
42099;DHT22;27758;55.900;8.516;2023-07-31T09:30:47;20.00;99.90
42099;DHT22;27758;55.900;8.516;2023-07-31T09:33:14;19.90;99.90
42099;DHT22;27758;55.900;8.516;2023-07-31T09:35:39;20.20;99.90
42099;DHT22;27758;55.900;8.516;2023-07-31T09:38:13;20.40;99.90
42099;DHT22;27758;55.900;8.516;2023-07-31T09:40:41;20.60;99.90
42099;DHT22;27758;55.900;8.516;2023-07-31T09:43:12;20.90;99.90
42099;DHT22;27758;55.900;8.516;2023-07-31T09:45:39;21.00;99.90
42099;DHT22;27758;55.900;8.516;2023-07-31T09:48:16;20.80;99.90
42099;DHT22;27758;55.900;8.516;2023-07-31T09:50:45;20.70;99.90
42099;DHT22;27758;55.900;8.516;2023-07-31T09:53:12;21.10;99.90
42099;DHT22;27758;55.900;8.516;2023-07-31T09:55:41;21.40;99.90
42099;DHT22;27758;55.900;8.516;2023-07-31T09:58:11;21.20;99.90
42099;DHT22;27758;55.900;8.516;2023-07-31T10:00:37;20.80;99.90
42099;DHT22;27758;55.900;8.516;2023-07-31T10:03:08;20.90;99.90
42099;DHT22;27758;55.900;8.516;2023-07-31T10:05:36;21.50;99.90
42099;DHT22;27758;55.900;8.516;2023-07-31T10:08:03;22.00;99.90
42099;DHT22;27758;55.900;8.516;2023-07-31T10:10:30;22.50;99.90
42099;DHT22;27758;55.900;8.516;2023-07-31T10:12:59;22.70;99.90
42099;DHT22;27758;55.900;8.516;2023-07-31T10:15:25;23.30;99.90
42099;DHT22;27758;55.900;8.516;2023-07-31T10:17:53;23.20;99.90
42099;DHT22;27758;55.900;8.516;2023-07-31T10:20:20;23.10;99.90
42099;DHT22;27758;55.900;8.516;2023-07-31T10:22:46;23.10;99.90
42099;DHT22;27758;55.900;8.516;2023-07-31T10:25:15;22.60;99.90
42099;DHT22;27758;55.900;8.516;2023-07-31T10:27:42;22.40;99.90
42099;DHT22;27758;55.900;8.516;2023-07-31T10:30:20;22.60;99.90
42099;DHT22;27758;55.900;8.516;2023-07-31T10:32:47;23.20;99.90
42099;DHT22;27758;55.900;8.516;2023-07-31T10:35:14;23.50;99.90
42099;DHT22;27758;55.900;8.516;2023-07-31T10:37:42;23.70;99.90
42099;DHT22;27758;55.900;8.516;2023-07-31T10:40:27;23.70;99.90
42099;DHT22;27758;55.900;8.516;2023-07-31T10:42:56;23.80;99.90
42099;DHT22;27758;55.900;8.516;2023-07-31T10:45:34;23.80;99.90
42099;DHT22;27758;55.900;8.516;2023-07-31T10:48:07;23.90;99.90
42099;DHT22;27758;55.900;8.516;2023-07-31T10:50:38;24.30;99.90
42099;DHT22;27758;55.900;8.516;2023-07-31T10:53:31;24.50;99.90
42099;DHT22;27758;55.900;8.516;2023-07-31T10:56:08;24.50;99.90
42099;DHT22;27758;55.900;8.516;2023-07-31T10:58:36;24.10;99.90
42099;DHT22;27758;55.900;8.516;2023-07-31T11:01:04;24.10;99.90
42099;DHT22;27758;55.900;8.516;2023-07-31T11:03:46;24.20;99.90
42099;DHT22;27758;55.900;8.516;2023-07-31T11:06:13;24.30;99.90
42099;DHT22;27758;55.900;8.516;2023-07-31T11:08:50;24.50;99.90
42099;DHT22;27758;55.900;8.516;2023-07-31T11:11:17;24.30;99.90
42099;DHT22;27758;55.900;8.516;2023-07-31T11:16:12;24.70;99.90
42099;DHT22;27758;55.900;8.516;2023-07-31T11:18:42;24.90;99.90
42099;DHT22;27758;55.900;8.516;2023-07-31T11:21:14;24.90;99.90
42099;DHT22;27758;55.900;8.516;2023-07-31T11:23:40;25.20;99.90
42099;DHT22;27758;55.900;8.516;2023-07-31T11:26:07;25.10;99.90
42099;DHT22;27758;55.900;8.516;2023-07-31T11:28:33;24.60;99.90
42099;DHT22;27758;55.900;8.516;2023-07-31T11:31:00;24.10;99.90
42099;DHT22;27758;55.900;8.516;2023-07-31T11:33:26;24.10;99.90
42099;DHT22;27758;55.900;8.516;2023-07-31T11:35:52;23.90;99.90
42099;DHT22;27758;55.900;8.516;2023-07-31T11:38:25;23.90;99.90
42099;DHT22;27758;55.900;8.516;2023-07-31T11:40:53;24.00;99.90
42099;DHT22;27758;55.900;8.516;2023-07-31T11:43:20;24.20;99.90
42099;DHT22;27758;55.900;8.516;2023-07-31T11:45:52;24.40;99.90
42099;DHT22;27758;55.900;8.516;2023-07-31T11:48:25;24.70;99.90
42099;DHT22;27758;55.900;8.516;2023-07-31T11:50:57;24.40;99.90
42099;DHT22;27758;55.900;8.516;2023-07-31T11:53:40;24.20;99.90
42099;DHT22;27758;55.900;8.516;2023-07-31T11:56:07;24.50;99.90
42099;DHT22;27758;55.900;8.516;2023-07-31T11:58:34;24.50;99.90
42099;DHT22;27758;55.900;8.516;2023-07-31T12:01:01;23.80;99.90
42099;DHT22;27758;55.900;8.516;2023-07-31T12:03:27;23.90;99.90
42099;DHT22;27758;55.900;8.516;2023-07-31T12:05:54;24.30;99.90
42099;DHT22;27758;55.900;8.516;2023-07-31T12:08:24;24.70;99.90
42099;DHT22;27758;55.900;8.516;2023-07-31T12:10:54;24.30;99.90
42099;DHT22;27758;55.900;8.516;2023-07-31T12:13:26;24.10;99.90
42099;DHT22;27758;55.900;8.516;2023-07-31T12:15:57;23.60;99.90
42099;DHT22;27758;55.900;8.516;2023-07-31T12:18:24;23.80;99.90
42099;DHT22;27758;55.900;8.516;2023-07-31T12:20:58;24.20;99.90
42099;DHT22;27758;55.900;8.516;2023-07-31T12:23:31;23.70;99.90
42099;DHT22;27758;55.900;8.516;2023-07-31T12:26:11;23.30;99.90
42099;DHT22;27758;55.900;8.516;2023-07-31T12:28:45;23.40;99.90
42099;DHT22;27758;55.900;8.516;2023-07-31T12:31:16;23.70;99.90
42099;DHT22;27758;55.900;8.516;2023-07-31T12:33:46;23.90;99.90
42099;DHT22;27758;55.900;8.516;2023-07-31T12:36:18;23.90;99.90
42099;DHT22;27758;55.900;8.516;2023-07-31T12:38:45;23.60;99.90
42099;DHT22;27758;55.900;8.516;2023-07-31T12:41:12;23.70;99.90
42099;DHT22;27758;55.900;8.516;2023-07-31T12:43:40;23.70;99.90
42099;DHT22;27758;55.900;8.516;2023-07-31T12:46:06;23.50;99.90
42099;DHT22;27758;55.900;8.516;2023-07-31T12:48:34;23.20;99.90
42099;DHT22;27758;55.900;8.516;2023-07-31T12:51:00;23.40;99.90
42099;DHT22;27758;55.900;8.516;2023-07-31T12:53:25;23.50;99.90
42099;DHT22;27758;55.900;8.516;2023-07-31T12:55:51;23.40;99.90
42099;DHT22;27758;55.900;8.516;2023-07-31T12:58:17;23.30;99.90
42099;DHT22;27758;55.900;8.516;2023-07-31T13:00:43;23.30;99.90
42099;DHT22;27758;55.900;8.516;2023-07-31T13:03:08;23.30;99.90
42099;DHT22;27758;55.900;8.516;2023-07-31T13:05:34;23.10;99.90
42099;DHT22;27758;55.900;8.516;2023-07-31T13:08:00;23.00;99.90
42099;DHT22;27758;55.900;8.516;2023-07-31T13:10:27;22.80;99.90
42099;DHT22;27758;55.900;8.516;2023-07-31T13:12:54;22.70;99.90
42099;DHT22;27758;55.900;8.516;2023-07-31T13:15:20;22.70;99.90
42099;DHT22;27758;55.900;8.516;2023-07-31T13:17:46;22.60;99.90
42099;DHT22;27758;55.900;8.516;2023-07-31T13:20:12;22.40;99.90
42099;DHT22;27758;55.900;8.516;2023-07-31T13:22:38;22.50;99.90
42099;DHT22;27758;55.900;8.516;2023-07-31T13:25:06;22.70;99.90
42099;DHT22;27758;55.900;8.516;2023-07-31T13:27:32;22.80;99.90
42099;DHT22;27758;55.900;8.516;2023-07-31T13:29:57;22.60;99.90
42099;DHT22;27758;55.900;8.516;2023-07-31T13:32:23;22.40;99.90
42099;DHT22;27758;55.900;8.516;2023-07-31T13:34:49;22.50;99.90
42099;DHT22;27758;55.900;8.516;2023-07-31T13:37:15;22.40;99.90
42099;DHT22;27758;55.900;8.516;2023-07-31T13:39:42;22.60;99.90
42099;DHT22;27758;55.900;8.516;2023-07-31T13:42:08;22.70;99.90
42099;DHT22;27758;55.900;8.516;2023-07-31T13:44:43;22.60;99.90
42099;DHT22;27758;55.900;8.516;2023-07-31T13:47:09;22.50;99.90
42099;DHT22;27758;55.900;8.516;2023-07-31T13:49:35;22.40;99.90
42099;DHT22;27758;55.900;8.516;2023-07-31T13:52:01;22.40;99.90
42099;DHT22;27758;55.900;8.516;2023-07-31T13:54:27;22.30;99.90
42099;DHT22;27758;55.900;8.516;2023-07-31T13:56:53;22.10;99.90
42099;DHT22;27758;55.900;8.516;2023-07-31T13:59:19;21.90;99.90
42099;DHT22;27758;55.900;8.516;2023-07-31T14:01:45;22.00;99.90
42099;DHT22;27758;55.900;8.516;2023-07-31T14:04:11;22.20;99.90
42099;DHT22;27758;55.900;8.516;2023-07-31T14:06:37;22.20;99.90
42099;DHT22;27758;55.900;8.516;2023-07-31T14:09:03;22.30;99.90
42099;DHT22;27758;55.900;8.516;2023-07-31T14:11:30;22.30;99.90
42099;DHT22;27758;55.900;8.516;2023-07-31T14:13:56;22.40;99.90
42099;DHT22;27758;55.900;8.516;2023-07-31T14:16:22;22.40;99.90
42099;DHT22;27758;55.900;8.516;2023-07-31T14:18:48;21.90;99.90
42099;DHT22;27758;55.900;8.516;2023-07-31T14:21:14;21.80;99.90
42099;DHT22;27758;55.900;8.516;2023-07-31T14:23:40;21.90;99.90
42099;DHT22;27758;55.900;8.516;2023-07-31T14:26:06;21.80;99.90
42099;DHT22;27758;55.900;8.516;2023-07-31T14:28:32;21.80;99.90
42099;DHT22;27758;55.900;8.516;2023-07-31T14:30:58;21.80;99.90
42099;DHT22;27758;55.900;8.516;2023-07-31T14:33:24;21.80;99.90
42099;DHT22;27758;55.900;8.516;2023-07-31T14:35:50;21.80;99.90
42099;DHT22;27758;55.900;8.516;2023-07-31T14:38:15;21.90;99.90
42099;DHT22;27758;55.900;8.516;2023-07-31T14:40:41;21.90;99.90
42099;DHT22;27758;55.900;8.516;2023-07-31T14:43:07;21.80;99.90
42099;DHT22;27758;55.900;8.516;2023-07-31T14:45:33;21.70;99.90
42099;DHT22;27758;55.900;8.516;2023-07-31T14:47:58;21.60;99.90
42099;DHT22;27758;55.900;8.516;2023-07-31T14:50:25;21.40;99.90
42099;DHT22;27758;55.900;8.516;2023-07-31T14:52:51;21.30;99.90
42099;DHT22;27758;55.900;8.516;2023-07-31T14:55:18;21.30;99.90
42099;DHT22;27758;55.900;8.516;2023-07-31T14:57:44;21.40;99.90
42099;DHT22;27758;55.900;8.516;2023-07-31T15:00:10;21.30;99.90
42099;DHT22;27758;55.900;8.516;2023-07-31T15:02:37;21.40;99.90
42099;DHT22;27758;55.900;8.516;2023-07-31T15:05:03;21.40;99.90
42099;DHT22;27758;55.900;8.516;2023-07-31T15:07:28;21.30;99.90
42099;DHT22;27758;55.900;8.516;2023-07-31T15:09:54;21.40;99.90
42099;DHT22;27758;55.900;8.516;2023-07-31T15:12:20;21.30;99.90
42099;DHT22;27758;55.900;8.516;2023-07-31T15:14:47;21.20;99.90
42099;DHT22;27758;55.900;8.516;2023-07-31T15:17:13;21.10;99.90
42099;DHT22;27758;55.900;8.516;2023-07-31T15:19:38;21.10;99.90
42099;DHT22;27758;55.900;8.516;2023-07-31T15:22:04;21.10;99.90
42099;DHT22;27758;55.900;8.516;2023-07-31T15:24:30;21.10;99.90
42099;DHT22;27758;55.900;8.516;2023-07-31T15:26:56;21.00;99.90
42099;DHT22;27758;55.900;8.516;2023-07-31T15:29:22;21.00;99.90
42099;DHT22;27758;55.900;8.516;2023-07-31T15:31:48;21.10;99.90
42099;DHT22;27758;55.900;8.516;2023-07-31T15:34:15;21.10;99.90
42099;DHT22;27758;55.900;8.516;2023-07-31T15:36:41;21.10;99.90
42099;DHT22;27758;55.900;8.516;2023-07-31T15:39:07;21.00;99.90